Time;durP1;ratioP1;P1;durP2;ratioP2;P2;SDS_P1;SDS_P2;PMS_P1;PMS_P2;Temp;Humidity;BMP_temperature;BMP_pressure;BME280_temperature;BME280_humidity;BME280_pressure;Samples;Min_cycle;Max_cycle;Signal;HPM_P1;HPM_P2
2022/05/06 00:01:44;;;;;;;26.65;18.85;;;12.90;98.90;;;;;;5096930;28;20030;-41
2022/05/06 00:04:10;;;;;;;26.30;19.17;;;12.90;99.00;;;;;;5108149;28;20065;-40
2022/05/06 00:06:36;;;;;;;24.67;18.58;;;12.90;99.10;;;;;;5096965;28;20019;-42
2022/05/06 00:09:03;;;;;;;26.38;18.63;;;12.80;99.10;;;;;;5108242;28;20478;-44
2022/05/06 00:11:29;;;;;;;28.42;20.40;;;12.80;99.10;;;;;;5094882;28;20490;-43
2022/05/06 00:13:54;;;;;;;28.30;20.95;;;12.80;99.10;;;;;;5108495;28;20035;-41
2022/05/06 00:16:20;;;;;;;22.42;16.13;;;12.80;99.20;;;;;;5094778;28;20081;-42
2022/05/06 00:18:46;;;;;;;25.65;20.60;;;12.80;99.30;;;;;;5108616;28;20465;-41
2022/05/06 00:21:12;;;;;;;26.58;19.10;;;12.80;99.30;;;;;;5098758;28;20078;-42
2022/05/06 00:23:37;;;;;;;28.33;20.67;;;12.70;99.40;;;;;;5105099;28;20764;-42
2022/05/06 00:26:03;;;;;;;29.83;21.63;;;12.70;99.40;;;;;;5100779;28;20020;-43
2022/05/06 00:28:30;;;;;;;27.80;20.00;;;12.70;99.50;;;;;;5103478;28;20836;-43
2022/05/06 00:30:56;;;;;;;31.33;22.40;;;12.70;99.60;;;;;;5102665;28;20103;-42
2022/05/06 00:33:24;;;;;;;33.42;23.55;;;12.60;99.80;;;;;;5100301;28;20112;-42
2022/05/06 00:35:53;;;;;;;36.80;26.27;;;12.50;99.90;;;;;;5104298;28;20688;-42
2022/05/06 00:38:19;;;;;;;38.65;27.48;;;12.50;99.90;;;;;;5098239;28;20071;-43
2022/05/06 00:40:45;;;;;;;34.03;23.90;;;12.50;99.90;;;;;;5106076;28;20055;-42
2022/05/06 00:43:11;;;;;;;35.35;24.23;;;12.40;99.90;;;;;;5096346;28;20034;-43
2022/05/06 00:45:53;;;;;;;34.17;24.55;;;12.40;99.90;;;;;;5105782;28;20400;-42
2022/05/06 00:48:25;;;;;;;39.17;24.73;;;12.40;99.90;;;;;;5095633;28;20769;-43
2022/05/06 00:50:52;;;;;;;36.10;23.85;;;12.40;99.90;;;;;;5105314;28;20024;-43
2022/05/06 00:53:18;;;;;;;36.17;24.70;;;12.40;99.90;;;;;;5097553;28;20038;-44
2022/05/06 00:55:44;;;;;;;35.72;24.27;;;12.40;99.90;;;;;;5106904;28;20035;-43
2022/05/06 00:58:09;;;;;;;33.75;23.42;;;12.40;99.90;;;;;;5094727;28;20042;-43
2022/05/06 01:00:35;;;;;;;35.08;24.05;;;12.40;99.90;;;;;;5107678;28;20055;-41
2022/05/06 01:03:01;;;;;;;35.17;25.63;;;12.30;99.90;;;;;;5094608;28;20028;-43
2022/05/06 01:05:27;;;;;;;35.17;23.75;;;12.30;99.90;;;;;;5106420;28;20041;-43
2022/05/06 01:07:53;;;;;;;27.95;20.95;;;12.30;99.90;;;;;;5096417;28;20024;-41
2022/05/06 01:10:21;;;;;;;31.50;22.60;;;12.30;99.90;;;;;;5106231;28;20027;-42
2022/05/06 01:12:47;;;;;;;31.15;21.85;;;12.30;99.90;;;;;;5097518;28;20107;-42
2022/05/06 01:15:29;;;;;;;34.40;23.95;;;12.20;99.90;;;;;;5103850;28;20749;-43
2022/05/06 01:17:56;;;;;;;36.05;24.38;;;12.20;99.90;;;;;;5098265;28;20039;-43
2022/05/06 01:20:23;;;;;;;39.75;25.88;;;12.20;99.90;;;;;;5102689;28;20073;-42
2022/05/06 01:22:51;;;;;;;37.22;25.50;;;12.10;99.90;;;;;;5100877;28;20044;-42
2022/05/06 01:25:18;;;;;;;33.80;24.30;;;12.00;99.90;;;;;;5099610;28;20023;-43
2022/05/06 01:28:03;;;;;;;29.55;20.83;;;12.00;99.90;;;;;;5102832;28;20063;-42
2022/05/06 01:30:42;;;;;;;36.72;25.05;;;12.00;99.90;;;;;;5101254;28;20131;-42
2022/05/06 01:33:09;;;;;;;33.55;23.83;;;12.00;99.90;;;;;;5099895;28;20020;-42
2022/05/06 01:35:46;;;;;;;35.47;23.83;;;11.90;99.90;;;;;;5100373;28;20031;-42
2022/05/06 01:38:34;;;;;;;34.67;23.90;;;11.90;99.90;;;;;;5100657;28;20024;-42
2022/05/06 01:41:08;;;;;;;39.72;26.02;;;11.90;99.90;;;;;;5102468;28;20036;-42
2022/05/06 01:43:39;;;;;;;33.40;23.05;;;11.90;99.90;;;;;;5099401;28;20049;-42
2022/05/06 01:46:06;;;;;;;40.63;26.20;;;12.00;99.90;;;;;;5102337;28;20095;-43
2022/05/06 01:48:34;;;;;;;43.30;27.08;;;11.90;99.90;;;;;;5100851;28;20012;-43
2022/05/06 01:51:00;;;;;;;42.20;27.15;;;11.90;99.90;;;;;;5098603;28;20035;-42
2022/05/06 01:53:26;;;;;;;42.13;27.13;;;11.90;99.90;;;;;;5088322;28;20044;-43
2022/05/06 01:55:52;;;;;;;49.58;29.25;;;11.90;99.90;;;;;;5095812;28;20089;-43
2022/05/06 01:58:17;;;;;;;40.28;27.73;;;12.00;99.90;;;;;;5087465;28;20115;-42
2022/05/06 02:00:43;;;;;;;46.22;25.77;;;12.00;99.90;;;;;;5096941;28;20048;-42
2022/05/06 02:05:16;;;;;;;48.13;26.90;;;12.00;99.90;;;;;;5087588;28;20139;-42
2022/05/06 02:05:54;;;;;;;45.30;27.77;;;12.00;99.90;;;;;;5097290;28;20035;-43
2022/05/06 02:08:19;;;;;;;44.58;27.33;;;12.00;99.90;;;;;;5086964;28;20034;-43
2022/05/06 02:10:45;;;;;;;46.00;26.33;;;12.00;99.90;;;;;;5097242;28;20777;-43
2022/05/06 02:13:13;;;;;;;47.00;27.85;;;11.90;99.90;;;;;;5086524;28;20043;-42
2022/05/06 02:15:39;;;;;;;48.88;27.45;;;11.90;99.90;;;;;;5097386;28;20088;-41
2022/05/06 02:18:04;;;;;;;54.50;27.83;;;11.90;99.90;;;;;;5085397;28;20045;-43
2022/05/06 02:20:30;;;;;;;53.03;28.05;;;11.90;99.90;;;;;;5097573;28;20520;-43
2022/05/06 02:22:56;;;;;;;40.55;24.23;;;11.90;99.90;;;;;;5085439;28;20463;-41
2022/05/06 02:25:22;;;;;;;50.42;24.23;;;11.90;99.90;;;;;;5095862;28;20039;-42
2022/05/06 02:27:48;;;;;;;31.85;21.40;;;11.90;99.90;;;;;;5088168;28;20135;-42
2022/05/06 02:33:12;;;;;;;34.38;21.08;;;11.80;99.90;;;;;;5087933;28;20043;-42
2022/05/06 02:35:39;;;;;;;40.58;20.83;;;11.70;99.90;;;;;;5094862;28;20039;-42
2022/05/06 02:38:05;;;;;;;42.15;23.17;;;11.70;99.90;;;;;;5091501;28;20093;-43
2022/05/06 02:40:35;;;;;;;39.50;22.95;;;11.60;99.90;;;;;;5096518;28;20032;-42
2022/05/06 02:43:05;;;;;;;46.00;23.58;;;11.60;99.90;;;;;;5093784;28;20056;-42
2022/05/06 02:45:32;;;;;;;35.47;22.73;;;11.50;99.90;;;;;;5094688;28;20078;-42
2022/05/06 02:47:58;;;;;;;36.67;22.27;;;11.50;99.90;;;;;;5096322;28;20024;-43
2022/05/06 02:50:24;;;;;;;33.85;22.95;;;11.50;99.90;;;;;;5092262;28;20635;-43
2022/05/06 02:52:50;;;;;;;29.75;21.15;;;11.50;99.90;;;;;;5109366;28;20020;-44
2022/05/06 02:55:16;;;;;;;30.33;21.38;;;11.50;99.90;;;;;;5107719;28;20027;-43
2022/05/06 02:57:41;;;;;;;27.05;19.27;;;11.50;99.90;;;;;;5097824;28;20028;-43
2022/05/06 03:00:08;;;;;;;30.25;21.52;;;11.50;99.90;;;;;;5107778;28;20055;-43
2022/05/06 03:02:34;;;;;;;31.52;21.02;;;11.40;99.90;;;;;;5097391;28;20069;-43
2022/05/06 03:04:59;;;;;;;27.75;20.15;;;11.40;99.90;;;;;;5108998;28;20028;-40
2022/05/06 03:07:25;;;;;;;29.48;20.70;;;11.30;99.90;;;;;;5095637;28;20069;-41
2022/05/06 03:09:52;;;;;;;36.00;22.00;;;11.20;99.90;;;;;;5109795;28;20366;-43
2022/05/06 03:12:19;;;;;;;27.55;21.42;;;11.10;99.90;;;;;;5095854;28;20147;-43
2022/05/06 03:14:45;;;;;;;30.27;21.92;;;11.10;99.90;;;;;;5109180;28;20471;-41
2022/05/06 03:17:11;;;;;;;25.55;20.65;;;11.10;99.90;;;;;;5098097;28;20043;-43
2022/05/06 03:19:37;;;;;;;27.95;22.40;;;11.00;99.90;;;;;;5106992;28;20028;-43
2022/05/06 03:22:03;;;;;;;28.73;22.02;;;11.00;99.90;;;;;;5100398;28;20030;-43
2022/05/06 03:24:29;;;;;;;28.88;21.70;;;11.00;99.90;;;;;;5104333;28;20065;-41
2022/05/06 03:26:55;;;;;;;27.27;21.60;;;11.10;99.90;;;;;;5102408;28;20494;-39
2022/05/06 03:29:20;;;;;;;27.95;21.48;;;11.10;99.90;;;;;;5102283;28;20034;-42
2022/05/06 03:31:46;;;;;;;24.05;19.17;;;11.10;99.90;;;;;;5104233;28;20035;-43
2022/05/06 03:34:12;;;;;;;28.27;21.33;;;11.10;99.90;;;;;;5100228;28;20026;-41
2022/05/06 03:36:38;;;;;;;26.92;20.58;;;11.00;99.90;;;;;;5106844;28;20104;-42
2022/05/06 03:39:04;;;;;;;22.02;18.33;;;11.00;99.90;;;;;;5097362;28;20090;-41
2022/05/06 03:41:30;;;;;;;27.20;19.30;;;11.00;99.90;;;;;;5106755;28;20061;-42
2022/05/06 03:43:56;;;;;;;24.58;16.85;;;10.80;99.90;;;;;;5097453;28;20746;-42
2022/05/06 03:46:22;;;;;;;20.30;15.65;;;10.80;99.90;;;;;;5107657;28;20026;-42
2022/05/06 03:48:47;;;;;;;22.55;18.05;;;10.70;99.90;;;;;;5094769;28;20027;-42
2022/05/06 03:51:22;;;;;;;25.73;18.60;;;10.70;99.90;;;;;;5107828;28;20019;-41
2022/05/06 03:53:52;;;;;;;27.55;19.60;;;10.60;99.90;;;;;;5095175;28;20089;-42
2022/05/06 03:56:19;;;;;;;25.00;20.23;;;10.60;99.90;;;;;;5108883;28;20101;-44
2022/05/06 03:58:45;;;;;;;29.55;21.27;;;10.60;99.90;;;;;;5095215;28;20571;-44
2022/05/06 04:01:16;;;;;;;29.23;21.17;;;10.70;99.90;;;;;;5108686;28;20035;-43
2022/05/06 04:03:41;;;;;;;23.45;16.85;;;10.70;99.90;;;;;;5098045;28;20028;-40
2022/05/06 04:06:07;;;;;;;27.10;19.13;;;10.70;99.90;;;;;;5107391;28;20352;-43
2022/05/06 04:08:33;;;;;;;22.73;17.17;;;10.70;99.90;;;;;;5098664;28;20368;-41
2022/05/06 04:10:58;;;;;;;25.65;17.70;;;10.60;99.90;;;;;;5104317;28;20023;-41
2022/05/06 04:13:24;;;;;;;29.38;17.58;;;10.60;99.90;;;;;;5102239;28;20470;-42
2022/05/06 04:15:50;;;;;;;26.85;16.85;;;10.60;99.90;;;;;;5100537;28;20424;-42
2022/05/06 04:18:17;;;;;;;26.25;17.80;;;10.60;99.90;;;;;;5104722;28;20016;-42
2022/05/06 04:23:29;;;;;;;24.88;18.58;;;10.60;99.90;;;;;;5104375;28;20042;-42
2022/05/06 04:25:56;;;;;;;23.05;18.25;;;10.60;99.90;;;;;;5099175;28;20042;-41
2022/05/06 04:28:23;;;;;;;19.38;16.10;;;10.60;99.90;;;;;;5105852;28;20546;-42
2022/05/06 04:30:48;;;;;;;22.98;16.52;;;10.70;99.90;;;;;;5096332;28;20112;-43
2022/05/06 04:33:14;;;;;;;17.23;14.18;;;10.60;99.90;;;;;;5106657;28;20036;-43
2022/05/06 04:35:40;;;;;;;17.70;14.80;;;10.60;99.90;;;;;;5095344;28;20070;-42
2022/05/06 04:38:05;;;;;;;25.13;15.88;;;10.60;99.90;;;;;;5107852;28;20024;-42
2022/05/06 04:40:33;;;;;;;20.17;14.23;;;10.60;99.90;;;;;;5094903;28;20463;-42
2022/05/06 04:43:00;;;;;;;19.35;14.13;;;10.50;99.90;;;;;;5107550;28;20054;-42
2022/05/06 04:45:26;;;;;;;20.65;14.48;;;10.50;99.90;;;;;;5094157;28;20376;-42
2022/05/06 04:47:52;;;;;;;21.58;16.10;;;10.50;99.90;;;;;;5107983;28;20113;-43
2022/05/06 04:50:17;;;;;;;18.20;14.70;;;10.50;99.90;;;;;;5095760;28;20119;-43
2022/05/06 04:52:43;;;;;;;27.20;15.57;;;10.60;99.90;;;;;;5092440;28;20105;-42
2022/05/06 04:55:09;;;;;;;21.92;18.48;;;10.50;99.90;;;;;;5095831;28;20057;-40
2022/05/06 04:57:35;;;;;;;47.17;17.23;;;10.50;99.90;;;;;;5089938;28;20028;-41
2022/05/06 05:00:01;;;;;;;22.02;16.55;;;10.60;99.90;;;;;;5092672;28;20046;-40
2022/05/06 05:02:27;;;;;;;24.85;17.55;;;10.60;99.90;;;;;;5093255;28;20419;-40
2022/05/06 05:04:56;;;;;;;21.90;18.02;;;10.60;99.90;;;;;;5090087;28;20135;-43
2022/05/06 05:07:23;;;;;;;18.85;16.73;;;10.70;99.90;;;;;;5095188;28;20026;-41
2022/05/06 05:09:48;;;;;;;18.77;16.52;;;10.70;99.90;;;;;;5087790;28;20483;-42
2022/05/06 05:12:14;;;;;;;19.17;15.52;;;10.80;99.90;;;;;;5097375;28;20039;-42
2022/05/06 05:14:41;;;;;;;17.83;15.57;;;10.90;99.90;;;;;;5087681;28;20028;-43
2022/05/06 05:17:07;;;;;;;18.88;15.77;;;10.90;99.90;;;;;;5097747;28;20047;-42
2022/05/06 05:19:32;;;;;;;15.80;12.75;;;11.00;99.90;;;;;;5085791;28;20024;-42
2022/05/06 05:21:58;;;;;;;16.55;13.80;;;10.90;99.90;;;;;;5098761;28;20986;-43
2022/05/06 05:24:23;;;;;;;17.95;15.15;;;10.90;99.90;;;;;;5085309;28;20020;-43
2022/05/06 05:26:49;;;;;;;15.45;13.85;;;10.80;99.90;;;;;;5098948;28;20035;-40
2022/05/06 05:29:15;;;;;;;16.88;13.93;;;10.80;99.90;;;;;;5086268;28;20020;-43
2022/05/06 05:31:40;;;;;;;20.48;14.18;;;10.80;99.90;;;;;;5096886;28;20490;-43
2022/05/06 05:34:06;;;;;;;15.70;12.93;;;10.80;99.90;;;;;;5087487;28;20028;-43
2022/05/06 05:36:31;;;;;;;15.18;13.57;;;10.80;99.90;;;;;;5094772;28;20027;-42
2022/05/06 05:38:57;;;;;;;16.77;13.57;;;10.80;99.90;;;;;;5089796;28;20035;-43
2022/05/06 05:41:22;;;;;;;15.85;14.10;;;10.80;99.90;;;;;;5092160;28;20015;-44
2022/05/06 05:49:19;;;;;;;15.52;12.85;;;10.90;99.90;;;;;;5083966;28;20042;-42
2022/05/06 05:51:45;;;;;;;17.60;14.55;;;10.90;99.90;;;;;;5078624;28;20032;-43
2022/05/06 05:54:10;;;;;;;17.52;15.63;;;11.00;99.90;;;;;;5078785;28;20020;-42
2022/05/06 05:56:36;;;;;;;16.60;14.68;;;11.00;99.90;;;;;;5092193;28;20387;-41
2022/05/06 05:59:01;;;;;;;18.30;15.30;;;11.10;99.90;;;;;;5095929;28;20545;-43
2022/05/06 06:01:29;;;;;;;19.48;16.75;;;11.20;99.90;;;;;;5102234;28;20045;-42
2022/05/06 06:03:55;;;;;;;19.55;16.40;;;11.30;99.90;;;;;;5094716;28;20032;-42
2022/05/06 06:06:23;;;;;;;17.73;15.70;;;11.40;99.90;;;;;;5104949;28;20032;-42
2022/05/06 06:08:49;;;;;;;18.50;16.50;;;11.50;99.90;;;;;;5093966;28;20044;-43
2022/05/06 06:11:17;;;;;;;15.70;14.00;;;11.60;99.90;;;;;;5104508;28;20051;-43
2022/05/06 06:13:43;;;;;;;16.60;14.45;;;11.70;99.90;;;;;;5091459;28;20151;-44
2022/05/06 06:16:08;;;;;;;31.10;15.80;;;11.80;99.90;;;;;;5106337;28;20796;-42
2022/05/06 06:18:34;;;;;;;17.50;14.75;;;11.80;99.90;;;;;;5091520;28;20349;-42
2022/05/06 06:21:00;;;;;;;17.60;15.13;;;11.90;99.90;;;;;;5105487;28;20024;-42
2022/05/06 06:23:26;;;;;;;19.48;14.30;;;12.00;99.90;;;;;;5093137;28;20035;-43
2022/05/06 06:25:51;;;;;;;22.42;15.98;;;12.10;99.90;;;;;;5104851;28;20027;-43
2022/05/06 06:28:17;;;;;;;19.85;16.75;;;12.10;99.90;;;;;;5095578;28;20027;-42
2022/05/06 06:30:42;;;;;;;21.10;17.50;;;12.10;99.90;;;;;;5102016;28;20088;-42
2022/05/06 06:33:08;;;;;;;25.42;19.42;;;12.10;99.90;;;;;;5102517;28;20026;-43
2022/05/06 06:35:34;;;;;;;23.33;17.13;;;12.10;99.90;;;;;;5090302;28;20432;-43
2022/05/06 06:38:00;;;;;;;25.27;16.20;;;12.20;99.90;;;;;;5089563;28;20624;-42
2022/05/06 06:40:26;;;;;;;18.50;16.52;;;12.20;99.90;;;;;;5093955;28;20750;-42
2022/05/06 06:42:51;;;;;;;26.05;18.48;;;12.20;99.90;;;;;;5086498;28;20028;-43
2022/05/06 06:45:17;;;;;;;24.17;18.58;;;12.20;99.90;;;;;;5097467;28;20090;-43
2022/05/06 06:47:43;;;;;;;22.45;17.27;;;12.20;99.90;;;;;;5086850;28;20040;-41
2022/05/06 06:50:09;;;;;;;20.67;16.42;;;12.20;99.90;;;;;;5096166;28;20417;-42
2022/05/06 06:52:35;;;;;;;20.45;16.80;;;12.30;99.90;;;;;;5096419;28;20023;-42
2022/05/06 06:55:00;;;;;;;21.40;16.80;;;12.40;99.90;;;;;;5093036;28;20737;-41
2022/05/06 06:57:29;;;;;;;16.95;14.10;;;12.50;99.90;;;;;;5104868;28;20051;-41
2022/05/06 06:59:55;;;;;;;19.65;16.30;;;12.60;99.90;;;;;;5092594;28;20055;-43
2022/05/06 07:02:21;;;;;;;16.63;13.43;;;12.70;99.90;;;;;;5106205;28;20031;-42
2022/05/06 07:04:51;;;;;;;16.98;13.10;;;12.80;99.90;;;;;;5094003;28;20115;-42
2022/05/06 07:12:45;;;;;;;19.20;14.85;;;13.00;99.90;;;;;;5066008;28;20125;-42
2022/05/06 07:15:10;;;;;;;19.58;15.30;;;13.10;99.90;;;;;;5093892;28;21068;-44
2022/05/06 07:17:36;;;;;;;21.05;16.30;;;13.10;99.90;;;;;;5085383;28;20028;-42
2022/05/06 07:20:02;;;;;;;21.65;16.92;;;13.00;99.90;;;;;;5094619;28;20617;-44
2022/05/06 07:22:27;;;;;;;24.98;18.08;;;13.10;99.90;;;;;;5088631;28;20056;-44
2022/05/06 07:24:54;;;;;;;22.52;18.23;;;13.10;99.90;;;;;;5095581;28;20391;-43
2022/05/06 07:27:21;;;;;;;22.33;16.58;;;13.20;99.90;;;;;;5095521;28;20036;-42
2022/05/06 07:29:46;;;;;;;22.98;17.63;;;13.30;99.90;;;;;;5093107;28;20039;-42
2022/05/06 07:32:12;;;;;;;24.30;17.77;;;13.30;99.90;;;;;;5097322;28;20021;-43
2022/05/06 07:34:37;;;;;;;22.23;17.17;;;13.30;99.90;;;;;;5089133;28;20742;-43
2022/05/06 07:37:03;;;;;;;24.30;18.40;;;13.40;99.90;;;;;;5106143;28;20039;-44
2022/05/06 07:39:31;;;;;;;23.27;17.65;;;13.50;99.90;;;;;;5105366;28;20030;-44
2022/05/06 07:41:56;;;;;;;18.45;14.40;;;13.60;99.90;;;;;;5096475;28;20107;-44
2022/05/06 07:44:22;;;;;;;18.90;15.05;;;13.70;99.90;;;;;;5107464;28;20467;-43
2022/05/06 07:46:48;;;;;;;19.70;15.85;;;13.70;99.90;;;;;;5094776;28;20046;-44
2022/05/06 07:49:14;;;;;;;19.70;15.65;;;13.70;99.90;;;;;;5107268;28;20229;-43
2022/05/06 07:51:39;;;;;;;20.17;15.35;;;13.80;99.90;;;;;;5094679;28;20382;-43
2022/05/06 07:54:08;;;;;;;18.00;14.52;;;13.80;99.90;;;;;;5087828;28;20048;-44
2022/05/06 07:56:33;;;;;;;19.13;15.48;;;13.70;99.90;;;;;;5099632;28;20059;-42
2022/05/06 07:59:00;;;;;;;16.00;14.10;;;13.80;99.90;;;;;;5087801;28;20558;-42
2022/05/06 08:06:53;;;;;;;15.07;12.55;;;13.90;99.90;;;;;;5099005;28;20390;-43
2022/05/06 08:09:20;;;;;;;15.82;13.43;;;13.90;99.90;;;;;;5088223;28;20024;-43
2022/05/06 08:11:46;;;;;;;16.20;13.02;;;14.00;99.90;;;;;;5096216;28;20054;-42
2022/05/06 08:14:12;;;;;;;15.95;13.02;;;14.10;99.90;;;;;;5090766;28;20058;-43
2022/05/06 08:16:38;;;;;;;15.48;13.13;;;14.10;99.90;;;;;;5093581;28;20032;-43
2022/05/06 08:19:03;;;;;;;14.48;12.35;;;14.10;99.90;;;;;;5092197;28;20697;-42
2022/05/06 08:21:36;;;;;;;13.40;11.85;;;14.00;99.90;;;;;;5092479;28;20035;-42
2022/05/06 08:24:02;;;;;;;14.45;11.90;;;14.00;99.90;;;;;;5098740;28;20080;-44
2022/05/06 08:26:27;;;;;;;13.98;11.75;;;13.90;99.90;;;;;;5104159;28;20485;-43
2022/05/06 08:28:53;;;;;;;12.43;10.50;;;13.90;99.90;;;;;;5096129;28;20027;-42
2022/05/06 08:31:20;;;;;;;11.32;10.07;;;13.80;99.90;;;;;;5104959;28;20043;-41
2022/05/06 08:33:45;;;;;;;12.35;10.45;;;13.70;99.90;;;;;;5094524;28;20484;-44
2022/05/06 08:36:11;;;;;;;11.93;9.98;;;13.70;99.90;;;;;;5105225;28;20561;-42
2022/05/06 08:38:36;;;;;;;11.90;10.43;;;13.60;99.90;;;;;;5095065;28;20032;-42
2022/05/06 08:41:02;;;;;;;9.70;8.70;;;13.50;99.90;;;;;;5107518;28;20107;-42
2022/05/06 08:43:28;;;;;;;9.73;8.70;;;13.60;99.90;;;;;;5093822;28;20016;-43
2022/05/06 08:51:35;;;;;;;10.02;8.25;;;13.80;99.90;;;;;;5107480;28;20043;-41
2022/05/06 08:54:01;;;;;;;9.90;8.90;;;13.90;99.90;;;;;;5099542;28;20032;-42
2022/05/06 08:56:27;;;;;;;8.88;7.53;;;14.00;99.90;;;;;;5085943;28;20745;-43
2022/05/06 08:58:54;;;;;;;9.55;8.50;;;14.10;99.90;;;;;;5100279;28;20020;-43
2022/05/06 09:01:21;;;;;;;9.48;8.30;;;14.20;99.90;;;;;;5086685;28;20407;-43
2022/05/06 09:03:48;;;;;;;10.15;9.02;;;14.20;99.90;;;;;;5099008;28;20088;-43
2022/05/06 09:06:24;;;;;;;12.90;10.50;;;14.30;99.90;;;;;;5088395;28;20375;-43
2022/05/06 09:08:52;;;;;;;10.25;9.02;;;14.30;99.90;;;;;;5098310;28;20024;-43
2022/05/06 09:14:07;;;;;;;10.05;8.40;;;14.40;99.90;;;;;;5099125;28;20043;-43
2022/05/06 09:16:44;;;;;;;8.70;7.75;;;14.40;99.90;;;;;;5086531;28;20044;-42
2022/05/06 09:19:22;;;;;;;10.98;9.52;;;14.40;99.90;;;;;;5097428;28;20027;-42
2022/05/06 09:22:17;;;;;;;7.82;6.93;;;14.50;99.90;;;;;;5085581;28;20071;-43
2022/05/06 09:24:44;;;;;;;10.45;9.35;;;14.60;99.90;;;;;;5098562;28;20126;-44
2022/05/06 09:27:14;;;;;;;11.23;10.02;;;14.60;99.90;;;;;;5087029;28;20036;-42
2022/05/06 09:29:45;;;;;;;8.60;7.70;;;14.60;99.90;;;;;;5098199;28;20042;-43
2022/05/06 09:32:27;;;;;;;9.60;8.57;;;14.80;99.90;;;;;;5074732;28;20081;-43
2022/05/06 09:35:13;;;;;;;10.52;9.10;;;14.80;99.90;;;;;;5098507;28;20076;-43
2022/05/06 09:37:46;;;;;;;8.88;7.97;;;14.90;99.90;;;;;;5064701;28;20123;-43
2022/05/06 09:40:18;;;;;;;7.78;7.00;;;14.90;99.90;;;;;;5096181;28;20549;-41
2022/05/06 09:42:44;;;;;;;;;;;15.00;99.90;;;;;;5086591;28;20584;-42
2022/05/06 09:45:12;;;;;;;9.25;8.27;;;15.00;99.90;;;;;;5096995;28;20006;-43
2022/05/06 09:47:39;;;;;;;8.10;7.30;;;15.10;99.90;;;;;;5085515;28;20359;-43
2022/05/06 09:50:07;;;;;;;8.50;7.65;;;15.10;99.90;;;;;;5095283;28;20037;-42
2022/05/06 09:52:33;;;;;;;8.13;7.28;;;15.20;99.90;;;;;;5096355;28;20024;-43
2022/05/06 09:55:00;;;;;;;7.47;6.78;;;15.30;99.90;;;;;;5099098;28;20028;-43
2022/05/06 09:57:26;;;;;;;7.07;6.38;;;15.40;99.90;;;;;;5100098;28;20471;-42
2022/05/06 09:59:52;;;;;;;7.07;6.38;;;15.50;99.90;;;;;;5100289;28;20059;-42
2022/05/06 10:02:18;;;;;;;6.95;6.25;;;15.60;99.90;;;;;;5097495;28;20016;-43
2022/05/06 10:04:44;;;;;;;7.15;6.40;;;15.70;99.90;;;;;;5103382;28;20034;-42
2022/05/06 10:07:14;;;;;;;7.28;6.57;;;15.70;99.90;;;;;;5095549;28;20027;-43
2022/05/06 10:09:52;;;;;;;7.50;6.75;;;15.80;99.90;;;;;;5102996;28;20028;-40
2022/05/06 10:12:19;;;;;;;7.50;6.78;;;15.90;99.90;;;;;;5084891;28;20034;-43
2022/05/06 10:14:45;;;;;;;6.72;6.13;;;16.00;99.90;;;;;;5103401;28;20115;-42
2022/05/06 10:17:11;;;;;;;7.05;6.35;;;16.00;99.90;;;;;;5094554;28;20034;-44
2022/05/06 10:19:36;;;;;;;6.00;5.50;;;16.10;99.90;;;;;;5104473;28;20020;-40
2022/05/06 10:22:03;;;;;;;6.47;5.88;;;16.20;99.90;;;;;;5093567;28;20073;-43
2022/05/06 10:24:41;;;;;;;6.65;5.93;;;16.20;99.90;;;;;;5106189;28;20024;-43
2022/05/06 10:33:16;;;;;;;4.20;3.85;;;16.50;99.90;;;;;;5089016;28;20039;-43
2022/05/06 10:35:43;;;;;;;5.00;4.50;;;16.50;99.90;;;;;;5102696;28;20053;-42
2022/05/06 10:38:20;;;;;;;4.47;4.07;;;16.60;99.90;;;;;;5095055;28;20027;-43
2022/05/06 10:40:59;;;;;;;6.15;5.55;;;16.60;99.90;;;;;;5103802;28;20035;-43
2022/05/06 10:43:48;;;;;;;6.22;5.68;;;16.70;99.90;;;;;;5085271;28;20031;-42
2022/05/06 10:46:30;;;;;;;5.18;4.68;;;16.90;99.90;;;;;;5102378;28;20054;-43
2022/05/06 10:49:33;;;;;;;6.38;5.78;;;16.90;99.90;;;;;;5098729;28;20092;-43
2022/05/06 10:52:13;;;;;;;5.78;5.25;;;17.10;99.90;;;;;;5100633;28;20020;-43
2022/05/06 10:54:49;;;;;;;5.18;4.68;;;17.20;99.90;;;;;;5106951;28;20035;-43
2022/05/06 10:57:16;;;;;;;5.15;4.65;;;17.30;99.90;;;;;;5101465;28;20612;-43
2022/05/06 11:00:09;;;;;;;4.90;3.78;;;17.40;99.90;;;;;;5093729;28;20527;-42
2022/05/06 11:02:37;;;;;;;4.90;4.50;;;17.50;99.90;;;;;;5099956;28;20032;-43
2022/05/06 11:05:04;;;;;;;3.97;3.67;;;17.50;99.90;;;;;;5092819;28;20020;-43
2022/05/06 11:07:32;;;;;;;5.40;4.90;;;17.50;99.90;;;;;;5098091;28;20038;-43
2022/05/06 11:09:57;;;;;;;5.53;4.95;;;17.50;99.90;;;;;;5094550;28;20039;-43
2022/05/06 11:12:40;;;;;;;5.43;4.93;;;17.70;99.90;;;;;;5095763;28;20451;-44
2022/05/06 11:15:08;;;;;;;4.95;4.45;;;17.80;99.90;;;;;;5095371;28;20028;-42
2022/05/06 11:17:35;;;;;;;5.13;4.63;;;17.80;99.90;;;;;;5093513;28;20470;-43
2022/05/06 11:20:03;;;;;;;5.28;4.82;;;17.90;99.90;;;;;;5096946;28;20506;-43
2022/05/06 11:22:33;;;;;;;4.60;4.20;;;18.00;99.90;;;;;;5093285;28;20016;-43
2022/05/06 11:24:59;;;;;;;4.18;3.88;;;18.10;99.90;;;;;;5099114;28;20081;-42
2022/05/06 11:27:24;;;;;;;3.80;3.50;;;18.10;99.90;;;;;;5090361;28;20417;-43
2022/05/06 11:29:50;;;;;;;3.58;3.28;;;18.20;99.90;;;;;;5100691;28;20036;-43
2022/05/06 11:32:19;;;;;;;3.50;3.20;;;18.20;99.80;;;;;;5090238;28;20020;-42
2022/05/06 11:34:57;;;;;;;2.88;2.67;;;18.30;99.70;;;;;;5101496;28;20024;-43
2022/05/06 11:37:24;;;;;;;3.00;2.80;;;18.30;99.70;;;;;;5090462;28;20051;-43
2022/05/06 11:39:51;;;;;;;3.40;3.10;;;18.30;99.60;;;;;;5100317;28;20077;-44
2022/05/06 11:42:20;;;;;;;4.35;3.95;;;18.30;99.50;;;;;;5089488;28;20032;-43
2022/05/06 11:47:42;;;;;;;4.15;3.38;;;18.30;99.20;;;;;;5107357;28;20164;-42
2022/05/06 11:50:09;;;;;;;4.88;4.47;;;18.40;99.10;;;;;;5097193;28;20064;-42
2022/05/06 11:52:37;;;;;;;3.88;3.50;;;18.40;99.00;;;;;;5104714;28;20023;-42
2022/05/06 11:55:04;;;;;;;4.10;3.70;;;18.40;99.00;;;;;;5100054;28;20024;-43
2022/05/06 11:57:30;;;;;;;3.30;2.97;;;18.50;98.90;;;;;;5087345;28;20055;-41
2022/05/06 11:59:56;;;;;;;4.38;3.40;;;18.50;98.90;;;;;;5099662;28;20055;-42
2022/05/06 12:02:22;;;;;;;4.25;3.67;;;18.60;98.80;;;;;;5087885;28;20030;-43
2022/05/06 12:04:47;;;;;;;3.85;3.15;;;18.70;98.70;;;;;;5098440;28;20024;-43
2022/05/06 12:07:13;;;;;;;2.88;2.67;;;18.70;98.60;;;;;;5088294;28;20085;-43
2022/05/06 12:09:46;;;;;;;3.38;3.08;;;18.80;98.40;;;;;;5094926;28;20051;-43
2022/05/06 12:12:12;;;;;;;8.43;4.68;;;19.00;98.20;;;;;;5090157;28;20388;-43
2022/05/06 12:14:38;;;;;;;3.53;3.22;;;19.00;98.00;;;;;;5094981;28;20098;-44
2022/05/06 12:17:09;;;;;;;3.20;2.95;;;19.10;98.00;;;;;;5093108;28;20127;-42
2022/05/06 12:19:39;;;;;;;3.40;3.10;;;19.10;97.90;;;;;;5091636;28;20447;-43
2022/05/06 12:22:06;;;;;;;3.00;2.80;;;19.20;97.80;;;;;;5094977;28;20028;-43
2022/05/06 12:24:38;;;;;;;3.53;3.15;;;19.30;97.50;;;;;;5090667;28;20020;-43
2022/05/06 12:27:04;;;;;;;3.25;2.72;;;19.40;97.30;;;;;;5095051;28;20047;-43
2022/05/06 12:29:36;;;;;;;3.15;2.80;;;19.40;97.00;;;;;;5088827;28;20017;-43
2022/05/06 12:32:03;;;;;;;3.15;2.85;;;19.50;97.00;;;;;;5097977;28;20059;-42
2022/05/06 12:34:29;;;;;;;3.10;2.90;;;19.50;96.50;;;;;;5088567;28;20022;-42
2022/05/06 12:37:09;;;;;;;5.22;3.20;;;19.50;96.40;;;;;;5098812;28;20438;-42
2022/05/06 12:39:44;;;;;;;3.50;3.20;;;19.50;96.40;;;;;;5087615;28;20026;-44
2022/05/06 12:42:16;;;;;;;3.22;2.92;;;19.60;96.10;;;;;;5097308;28;20032;-43
2022/05/06 12:44:43;;;;;;;3.00;2.80;;;19.60;96.30;;;;;;5089083;28;20036;-43
2022/05/06 12:47:13;;;;;;;3.00;2.70;;;19.60;96.20;;;;;;5098918;28;20065;-43
2022/05/06 12:49:39;;;;;;;3.33;3.00;;;19.60;96.20;;;;;;5086971;28;20059;-42
2022/05/06 12:52:07;;;;;;;3.47;3.17;;;19.70;96.10;;;;;;5100986;28;20024;-42
2022/05/06 12:54:33;;;;;;;2.63;2.15;;;19.70;95.90;;;;;;5106020;28;20030;-43
2022/05/06 12:57:00;;;;;;;2.97;2.70;;;19.80;95.80;;;;;;5094098;28;20036;-42
2022/05/06 12:59:26;;;;;;;4.68;3.90;;;19.90;95.50;;;;;;5107228;28;20071;-42
2022/05/06 13:01:52;;;;;;;4.93;3.50;;;19.90;94.90;;;;;;5094662;28;20036;-42
2022/05/06 13:04:19;;;;;;;4.57;4.18;;;20.00;94.80;;;;;;5106003;28;20093;-41
2022/05/06 13:06:45;;;;;;;3.33;3.03;;;20.00;94.80;;;;;;5097388;28;20361;-43
2022/05/06 13:09:12;;;;;;;3.85;3.45;;;20.10;94.70;;;;;;5105306;28;20031;-43
2022/05/06 13:11:37;;;;;;;3.40;3.10;;;20.10;94.50;;;;;;5099434;28;20023;-43
2022/05/06 13:14:03;;;;;;;3.40;3.10;;;20.20;94.20;;;;;;5102822;28;20015;-42
2022/05/06 13:16:29;;;;;;;4.35;3.45;;;20.30;94.20;;;;;;5100652;28;20040;-43